createdAt,value
2023-03-26T00:01:46.767Z,0.00
2023-03-26T00:04:50.081Z,0.00
2023-03-26T00:07:43.214Z,0.10
2023-03-26T00:10:47.148Z,0.00
2023-03-26T00:13:39.023Z,0.22
2023-03-26T00:16:42.914Z,0.10
2023-03-26T00:19:34.221Z,0.10
2023-03-26T00:22:37.776Z,0.10
2023-03-26T00:25:51.331Z,0.30
2023-03-26T00:28:57.978Z,0.15
2023-03-26T00:31:49.521Z,0.00
2023-03-26T00:34:52.525Z,0.20
2023-03-26T00:38:15.105Z,0.30
2023-03-26T00:41:23.212Z,0.03
2023-03-26T00:44:14.442Z,0.10
2023-03-26T00:47:16.939Z,0.13
2023-03-26T00:50:15.607Z,0.10
2023-03-26T00:53:20.134Z,0.00
2023-03-26T00:56:11.990Z,0.10
2023-03-26T00:59:15.765Z,0.10
2023-03-26T01:02:17.414Z,0.37
2023-03-26T01:05:45.589Z,0.10
2023-03-26T01:08:47.190Z,0.15
2023-03-26T01:11:50.602Z,0.10
2023-03-26T01:14:41.764Z,0.10
2023-03-26T01:17:45.574Z,0.28
2023-03-26T01:20:47.041Z,0.40
2023-03-26T01:24:05.495Z,0.15
2023-03-26T01:27:21.231Z,0.10
2023-03-26T01:30:41.641Z,0.17
2023-03-26T01:33:54.983Z,0.10
2023-03-26T01:37:13.698Z,0.00
2023-03-26T01:40:15.976Z,0.10
2023-03-26T01:43:29.291Z,0.30
2023-03-26T01:46:28.008Z,0.00
2023-03-26T01:49:31.862Z,0.00
2023-03-26T01:52:26.416Z,0.40
2023-03-26T01:55:56.359Z,0.10
2023-03-26T01:59:04.829Z,0.00
2023-03-26T02:02:11.376Z,0.20
2023-03-26T02:05:14.112Z,0.13
2023-03-26T02:08:35.854Z,0.00
2023-03-26T02:11:40.943Z,0.17
2023-03-26T02:14:44.715Z,0.20
2023-03-26T02:17:36.474Z,0.10
2023-03-26T02:20:41.833Z,0.10
2023-03-26T02:23:35.953Z,0.30
2023-03-26T02:29:29.860Z,0.10
2023-03-26T02:32:33.434Z,0.10
2023-03-26T02:35:36.164Z,0.15
2023-03-26T02:38:42.355Z,0.30
2023-03-26T02:41:44.313Z,0.32
2023-03-26T02:44:47.349Z,0.20
2023-03-26T02:47:51.193Z,0.47
2023-03-26T02:50:56.994Z,0.10
2023-03-26T02:53:59.613Z,0.10
2023-03-26T02:57:02.619Z,0.35
2023-03-26T03:00:15.237Z,0.17
2023-03-26T03:03:27.213Z,0.20
2023-03-26T03:06:31.097Z,0.10
2023-03-26T03:09:35.276Z,0.10
2023-03-26T03:12:38.520Z,0.10
2023-03-26T03:15:57.076Z,0.10
2023-03-26T03:18:59.727Z,0.28
2023-03-26T03:22:05.414Z,0.10
2023-03-26T03:25:14.431Z,0.22
2023-03-26T03:28:18.658Z,0.35
2023-03-26T03:31:13.536Z,0.52
2023-03-26T03:34:16.755Z,0.57
2023-03-26T03:37:20.081Z,0.22
2023-03-26T03:40:22.346Z,0.20
2023-03-26T03:43:24.321Z,0.13
2023-03-26T03:46:27.477Z,0.10
2023-03-26T03:49:31.481Z,0.22
2023-03-26T03:52:34.405Z,0.20
2023-03-26T03:55:42.183Z,0.20
2023-03-26T03:58:46.406Z,0.15
2023-03-26T04:01:50.912Z,0.22
2023-03-26T04:04:54.957Z,0.10
2023-03-26T04:08:00.269Z,0.20
2023-03-26T04:11:03.844Z,0.10
2023-03-26T04:14:06.337Z,0.10
2023-03-26T04:17:09.397Z,0.20
2023-03-26T04:20:15.970Z,0.22
2023-03-26T04:23:20.161Z,0.32
2023-03-26T04:26:22.926Z,1.52
2023-03-26T04:29:44.747Z,0.47
2023-03-26T04:32:49.975Z,0.62
2023-03-26T04:36:02.531Z,0.00
2023-03-26T04:39:07.474Z,0.00
2023-03-26T04:42:11.510Z,0.28
2023-03-26T04:45:16.323Z,0.20
2023-03-26T04:48:20.572Z,0.35
2023-03-26T04:51:27.981Z,0.65
2023-03-26T04:54:31.350Z,0.70
2023-03-26T04:57:37.455Z,0.10
2023-03-26T05:00:42.183Z,0.30
2023-03-26T05:03:45.866Z,0.13
2023-03-26T05:06:49.470Z,0.10
2023-03-26T05:09:51.378Z,0.22
2023-03-26T05:12:55.777Z,0.20
2023-03-26T05:15:58.520Z,0.25
2023-03-26T05:19:00.386Z,0.10
2023-03-26T05:22:02.643Z,0.62
2023-03-26T05:25:07.492Z,0.65
2023-03-26T05:28:11.179Z,0.40
2023-03-26T05:31:15.726Z,0.43
2023-03-26T05:34:20.726Z,0.50
2023-03-26T05:37:26.270Z,0.30
2023-03-26T05:40:28.452Z,0.30
2023-03-26T05:43:31.522Z,0.35
2023-03-26T05:46:33.427Z,0.17
2023-03-26T05:49:36.522Z,0.52
2023-03-26T05:52:39.930Z,0.40
2023-03-26T05:55:46.836Z,1.55
2023-03-26T05:58:52.105Z,1.12
2023-03-26T06:01:56.550Z,0.25
2023-03-26T06:05:01.475Z,0.60
2023-03-26T06:08:08.790Z,0.85
2023-03-26T06:11:12.906Z,0.93
2023-03-26T06:14:15.515Z,0.60
2023-03-26T06:17:24.479Z,0.40
2023-03-26T06:20:29.407Z,0.10
2023-03-26T06:23:33.548Z,0.75
2023-03-26T06:26:35.938Z,0.40
2023-03-26T06:29:43.504Z,0.10
2023-03-26T06:32:47.237Z,0.50
2023-03-26T06:35:50.881Z,0.32
2023-03-26T06:38:41.943Z,0.40
2023-03-26T06:41:45.548Z,0.20
2023-03-26T06:44:48.631Z,0.60
2023-03-26T06:47:55.633Z,1.40
2023-03-26T06:50:59.140Z,0.50
2023-03-26T06:54:02.207Z,0.10
2023-03-26T06:56:53.196Z,0.10
2023-03-26T07:03:05.277Z,0.20
2023-03-26T07:06:20.489Z,0.50
2023-03-26T07:09:25.647Z,0.47
2023-03-26T07:15:33.225Z,0.57
2023-03-26T07:18:36.472Z,0.65
2023-03-26T07:21:40.418Z,0.68
2023-03-26T07:24:44.614Z,0.10
2023-03-26T07:28:21.800Z,0.20
2023-03-26T07:31:39.344Z,0.15
2023-03-26T07:34:53.285Z,0.20
2023-03-26T07:38:27.294Z,0.30
2023-03-26T07:41:43.399Z,0.20
2023-03-26T07:45:34.014Z,0.10
2023-03-26T07:48:48.091Z,0.10
2023-03-26T07:51:52.411Z,0.22
2023-03-26T07:54:55.738Z,0.30
2023-03-26T07:58:23.924Z,0.28
2023-03-26T08:01:47.872Z,0.17
2023-03-26T08:04:51.556Z,0.30
2023-03-26T08:08:23.116Z,0.10
2023-03-26T08:11:16.326Z,0.10
2023-03-26T08:14:36.502Z,0.35
2023-03-26T08:17:42.937Z,0.10
2023-03-26T08:20:51.366Z,0.30
2023-03-26T08:24:16.487Z,0.20
2023-03-26T08:27:40.084Z,0.30
2023-03-26T08:30:31.754Z,0.28
2023-03-26T08:33:27.681Z,2.08
2023-03-26T08:36:31.363Z,1.05
2023-03-26T08:39:22.438Z,0.30
2023-03-26T08:42:50.558Z,0.20
2023-03-26T08:46:02.301Z,0.47
2023-03-26T08:49:21.623Z,0.25
2023-03-26T08:52:30.868Z,0.28
2023-03-26T08:55:36.625Z,0.20
2023-03-26T08:58:34.062Z,0.30
2023-03-26T09:02:22.288Z,0.20
2023-03-26T09:05:19.007Z,0.20
2023-03-26T09:08:54.496Z,0.20
2023-03-26T09:12:04.805Z,0.32
2023-03-26T09:15:42.594Z,0.20
2023-03-26T09:19:03.987Z,0.30
2023-03-26T09:22:22.607Z,0.10
2023-03-26T09:25:23.816Z,0.10
2023-03-26T09:29:10.752Z,0.35
2023-03-26T09:32:20.704Z,0.20
2023-03-26T09:35:42.951Z,0.30
2023-03-26T09:38:44.790Z,0.40
2023-03-26T09:42:22.109Z,0.20
2023-03-26T09:45:06.464Z,0.43
2023-03-26T09:48:54.378Z,0.57
2023-03-26T09:52:06.226Z,0.13
2023-03-26T09:55:44.229Z,0.08
2023-03-26T09:59:13.550Z,0.50
2023-03-26T10:02:45.363Z,0.15
2023-03-26T10:06:13.883Z,0.30
2023-03-26T10:09:28.709Z,0.10
2023-03-26T10:12:46.128Z,0.47
2023-03-26T10:16:10.795Z,0.30
2023-03-26T10:19:48.335Z,0.75
2023-03-26T10:22:57.002Z,0.20
2023-03-26T10:26:16.724Z,0.50
2023-03-26T10:29:39.205Z,0.45
2023-03-26T10:33:25.084Z,0.20
2023-03-26T10:37:00.809Z,0.30
2023-03-26T10:40:22.481Z,0.32
2023-03-26T10:43:38.435Z,0.50
2023-03-26T10:46:58.647Z,0.30
2023-03-26T10:50:30.662Z,0.60
2023-03-26T10:53:54.718Z,0.73
2023-03-26T10:57:18.672Z,0.32
2023-03-26T11:00:25.701Z,0.22
2023-03-26T11:03:53.260Z,0.28
2023-03-26T11:07:45.628Z,0.50
2023-03-26T11:14:04.984Z,0.10
2023-03-26T11:17:14.691Z,0.37
2023-03-26T11:20:13.599Z,0.20
2023-03-26T11:22:54.074Z,0.62
2023-03-26T11:25:44.185Z,0.30
2023-03-26T11:28:42.133Z,0.30
2023-03-26T11:31:39.492Z,0.35
2023-03-26T11:34:19.335Z,0.47
2023-03-26T11:36:54.513Z,0.17
2023-03-26T11:39:37.807Z,0.20
2023-03-26T11:42:14.668Z,0.40
2023-03-26T11:45:22.868Z,0.22
2023-03-26T11:47:56.513Z,0.45
2023-03-26T11:50:30.035Z,0.20
2023-03-26T11:53:03.485Z,0.50
2023-03-26T11:55:32.840Z,0.40
2023-03-26T11:58:06.318Z,0.30
2023-03-26T12:00:35.988Z,0.40
2023-03-26T12:03:15.736Z,0.40
2023-03-26T12:05:50.094Z,0.22
2023-03-26T12:08:31.330Z,0.25
2023-03-26T12:11:05.791Z,0.50
2023-03-26T12:13:51.315Z,0.43
2023-03-26T12:19:06.378Z,0.28
2023-03-26T12:21:46.931Z,0.40
2023-03-26T12:24:29.856Z,0.55
2023-03-26T12:27:20.588Z,0.40
2023-03-26T12:30:00.233Z,0.45
2023-03-26T12:32:46.221Z,0.57
2023-03-26T12:35:22.992Z,0.22
2023-03-26T12:37:51.660Z,0.40
2023-03-26T12:40:31.150Z,0.60
2023-03-26T12:44:50.183Z,0.47
2023-03-26T12:47:55.252Z,0.22
2023-03-26T12:48:44.232Z,0.40
2023-03-26T12:51:40.413Z,0.30
2023-03-26T12:54:27.171Z,0.28
2023-03-26T12:57:21.035Z,0.47
2023-03-26T12:59:50.405Z,0.70
2023-03-26T13:02:42.170Z,0.30
2023-03-26T13:05:39.441Z,0.22
2023-03-26T13:08:35.265Z,0.30
2023-03-26T13:11:32.628Z,0.50
2023-03-26T13:14:23.054Z,0.20
2023-03-26T13:17:10.152Z,0.60
2023-03-26T13:19:53.817Z,0.30
2023-03-26T13:22:50.634Z,0.30
2023-03-26T13:25:33.500Z,0.40
2023-03-26T13:28:27.041Z,0.35
2023-03-26T13:31:22.684Z,0.40
2023-03-26T13:33:53.449Z,0.10
2023-03-26T13:36:54.757Z,0.37
2023-03-26T13:39:45.596Z,0.43
2023-03-26T13:42:18.552Z,0.10
2023-03-26T13:44:52.834Z,0.47
2023-03-26T13:47:42.271Z,0.20
2023-03-26T13:50:17.668Z,0.80
2023-03-26T13:53:18.281Z,0.50
2023-03-26T13:55:53.984Z,0.47
2023-03-26T13:58:38.813Z,1.15
2023-03-26T14:04:01.881Z,0.30
2023-03-26T14:06:54.022Z,0.88
2023-03-26T14:09:38.375Z,0.90
2023-03-26T14:12:21.296Z,0.25
2023-03-26T14:15:14.037Z,0.50
2023-03-26T14:17:47.485Z,0.35
2023-03-26T14:20:22.808Z,0.62
2023-03-26T14:23:20.599Z,3.37
2023-03-26T14:26:26.752Z,0.73
2023-03-26T14:29:33.116Z,0.68
2023-03-26T14:32:36.491Z,0.37
2023-03-26T14:35:31.582Z,0.88
2023-03-26T14:38:08.206Z,0.35
2023-03-26T14:40:58.489Z,0.30
2023-03-26T14:44:05.356Z,0.40
2023-03-26T14:47:14.524Z,0.35
2023-03-26T14:50:04.491Z,0.50
2023-03-26T14:52:50.768Z,0.52
2023-03-26T14:55:44.148Z,0.37
2023-03-26T14:58:59.176Z,0.50
2023-03-26T15:01:29.518Z,0.30
2023-03-26T15:04:21.069Z,0.20
2023-03-26T15:07:22.946Z,0.20
2023-03-26T15:10:49.635Z,0.32
2023-03-26T15:13:44.973Z,0.13
2023-03-26T15:16:50.805Z,0.25
2023-03-26T15:19:45.636Z,0.40
2023-03-26T15:22:32.182Z,0.30
2023-03-26T15:25:31.408Z,0.32
2023-03-26T15:28:18.027Z,0.10
2023-03-26T15:31:06.605Z,0.20
2023-03-26T15:34:12.578Z,0.73
2023-03-26T15:37:00.424Z,0.35
2023-03-26T15:39:59.202Z,0.70
2023-03-26T15:42:45.949Z,0.20
2023-03-26T15:45:47.467Z,0.68
2023-03-26T15:48:51.673Z,0.10
2023-03-26T15:51:22.668Z,0.30
2023-03-26T15:54:29.998Z,0.80
2023-03-26T15:57:23.496Z,0.65
2023-03-26T16:00:12.407Z,0.40
2023-03-26T16:03:11.775Z,0.40
2023-03-26T16:06:15.877Z,0.95
2023-03-26T16:09:08.676Z,0.80
2023-03-26T16:11:55.143Z,0.65
2023-03-26T16:14:36.072Z,0.73
2023-03-26T16:17:11.771Z,0.73
2023-03-26T16:19:49.714Z,0.45
2023-03-26T16:22:53.739Z,0.20
2023-03-26T16:25:28.280Z,0.57
2023-03-26T16:28:13.416Z,0.30
2023-03-26T16:30:42.353Z,0.20
2023-03-26T16:33:17.889Z,0.30
2023-03-26T16:36:14.199Z,0.40
2023-03-26T16:39:08.681Z,0.60
2023-03-26T16:41:39.963Z,1.17
2023-03-26T16:44:11.557Z,1.33
2023-03-26T16:46:51.774Z,0.95
2023-03-26T16:49:42.649Z,0.60
2023-03-26T16:52:19.912Z,0.70
2023-03-26T16:54:57.179Z,0.73
2023-03-26T16:57:43.719Z,0.40
2023-03-26T17:00:36.804Z,0.47
2023-03-26T17:03:27.889Z,0.32
2023-03-26T17:05:56.917Z,0.15
2023-03-26T17:08:49.571Z,0.20
2023-03-26T17:11:43.189Z,0.30
2023-03-26T17:14:30.711Z,0.57
2023-03-26T17:17:08.621Z,1.40
2023-03-26T17:19:49.215Z,0.70
2023-03-26T17:22:20.564Z,0.22
2023-03-26T17:25:01.486Z,1.10
2023-03-26T17:27:34.960Z,0.70
2023-03-26T17:30:42.030Z,0.98
2023-03-26T17:33:28.139Z,1.00
2023-03-26T17:36:11.932Z,0.30
2023-03-26T17:38:45.404Z,2.05
2023-03-26T17:41:55.391Z,1.20
2023-03-26T17:44:44.997Z,1.00
2023-03-26T17:47:25.372Z,1.40
2023-03-26T17:50:24.536Z,0.60
2023-03-26T17:53:04.781Z,1.02
2023-03-26T17:55:37.861Z,0.80
2023-03-26T17:58:18.543Z,0.70
2023-03-26T18:00:52.893Z,1.37
2023-03-26T18:03:31.121Z,0.90
2023-03-26T18:06:27.930Z,0.95
2023-03-26T18:09:37.721Z,0.85
2023-03-26T18:12:31.609Z,0.65
2023-03-26T18:15:22.181Z,0.65
2023-03-26T18:18:03.073Z,1.10
2023-03-26T18:20:32.546Z,0.90
2023-03-26T18:23:10.174Z,1.27
2023-03-26T18:25:40.999Z,0.88
2023-03-26T18:28:14.418Z,1.40
2023-03-26T18:30:47.337Z,0.75
2023-03-26T18:33:16.438Z,1.30
2023-03-26T18:35:52.045Z,0.80
2023-03-26T18:38:34.939Z,0.60
2023-03-26T18:41:12.369Z,0.95
2023-03-26T18:43:44.192Z,1.10
2023-03-26T18:46:14.838Z,2.58
2023-03-26T18:48:44.435Z,1.52
2023-03-26T18:51:13.501Z,1.60
2023-03-26T18:53:54.708Z,1.25
2023-03-26T18:56:37.163Z,1.23
2023-03-26T18:59:32.192Z,1.83
2023-03-26T19:02:11.648Z,1.77
2023-03-26T19:04:46.655Z,1.27
2023-03-26T19:07:25.860Z,1.80
2023-03-26T19:09:56.845Z,2.15
2023-03-26T19:12:37.361Z,2.37
2023-03-26T19:15:12.342Z,3.78
2023-03-26T19:17:47.202Z,2.60
2023-03-26T19:20:41.383Z,2.05
2023-03-26T19:23:15.409Z,2.55
2023-03-26T19:25:50.037Z,2.90
2023-03-26T19:28:29.763Z,1.20
2023-03-26T19:31:07.335Z,1.58
2023-03-26T19:33:40.147Z,2.65
2023-03-26T19:36:14.627Z,1.80
2023-03-26T19:38:44.801Z,2.67
2023-03-26T19:41:39.516Z,2.65
2023-03-26T19:44:16.871Z,2.40
2023-03-26T19:46:53.539Z,2.47
2023-03-26T19:49:33.349Z,1.77
2023-03-26T19:52:13.330Z,1.62
2023-03-26T19:54:59.059Z,1.50
2023-03-26T19:57:31.349Z,1.42
2023-03-26T20:00:09.293Z,1.40
2023-03-26T20:05:23.102Z,1.27
2023-03-26T20:07:55.723Z,1.42
2023-03-26T20:10:24.372Z,1.67
2023-03-26T20:12:53.154Z,1.05
2023-03-26T20:15:23.415Z,1.50
2023-03-26T20:17:54.648Z,1.08
2023-03-26T20:20:25.463Z,1.65
2023-03-26T20:22:54.838Z,1.27
2023-03-26T20:25:30.230Z,1.15
2023-03-26T20:27:59.765Z,0.73
2023-03-26T20:30:37.602Z,1.48
2023-03-26T20:33:12.772Z,1.50
2023-03-26T20:35:42.932Z,1.17
2023-03-26T20:38:12.025Z,0.88
2023-03-26T20:40:41.167Z,2.15
2023-03-26T20:43:13.016Z,1.90
2023-03-26T20:45:41.706Z,1.70
2023-03-26T20:48:10.555Z,1.70
2023-03-26T20:50:50.823Z,1.48
2023-03-26T20:53:20.443Z,1.10
2023-03-26T20:55:51.081Z,1.30
2023-03-26T20:58:31.758Z,1.30
2023-03-26T21:01:02.439Z,1.40
2023-03-26T21:03:31.153Z,1.20
2023-03-26T21:06:04.022Z,1.90
2023-03-26T21:08:35.797Z,1.48
2023-03-26T21:11:05.788Z,1.87
2023-03-26T21:13:37.349Z,1.65
2023-03-26T21:16:06.686Z,1.02
2023-03-26T21:18:35.230Z,0.82
2023-03-26T21:21:39.226Z,0.50
2023-03-26T21:24:30.373Z,0.52
2023-03-26T21:27:10.927Z,0.25
2023-03-26T21:29:39.672Z,0.50
2023-03-26T21:32:12.449Z,0.50
2023-03-26T21:34:47.870Z,0.08
2023-03-26T21:37:24.371Z,0.10
2023-03-26T21:39:53.515Z,0.28
2023-03-26T21:42:22.024Z,0.47
2023-03-26T21:44:50.801Z,0.10
2023-03-26T21:47:19.504Z,0.20
2023-03-26T21:49:49.196Z,0.20
2023-03-26T21:52:17.769Z,0.20
2023-03-26T21:54:46.654Z,0.10
2023-03-26T21:57:33.995Z,0.25
2023-03-26T22:00:18.524Z,0.22
2023-03-26T22:03:01.689Z,0.30
2023-03-26T22:05:42.569Z,0.20
2023-03-26T22:08:24.634Z,0.15
2023-03-26T22:10:52.908Z,0.10
2023-03-26T22:13:21.461Z,0.15
2023-03-26T22:15:50.290Z,0.20
2023-03-26T22:18:21.488Z,0.08
2023-03-26T22:20:50.300Z,0.10
2023-03-26T22:23:19.186Z,0.25
2023-03-26T22:25:47.346Z,0.10
2023-03-26T22:28:16.083Z,0.25
2023-03-26T22:30:44.079Z,0.45
2023-03-26T22:33:12.258Z,0.30
2023-03-26T22:35:44.681Z,0.22
2023-03-26T22:38:13.099Z,0.10
2023-03-26T22:40:41.976Z,0.05
2023-03-26T22:43:10.125Z,0.20
2023-03-26T22:45:38.234Z,0.10
2023-03-26T22:48:06.729Z,0.20
2023-03-26T22:50:35.318Z,0.15
2023-03-26T22:53:03.806Z,0.15
2023-03-26T22:55:32.374Z,0.20
2023-03-26T22:58:00.564Z,0.10
2023-03-26T23:00:28.997Z,0.28
2023-03-26T23:03:00.729Z,0.05
2023-03-26T23:05:29.617Z,0.40
2023-03-26T23:07:58.477Z,0.40
2023-03-26T23:10:26.905Z,0.40
2023-03-26T23:12:55.424Z,0.20
2023-03-26T23:15:25.958Z,0.20
2023-03-26T23:17:55.372Z,0.40
2023-03-26T23:20:23.943Z,0.43
2023-03-26T23:22:52.648Z,0.30
2023-03-26T23:25:21.340Z,0.10
2023-03-26T23:27:50.648Z,0.40
2023-03-26T23:30:19.245Z,0.32
2023-03-26T23:32:47.837Z,0.32
2023-03-26T23:35:22.186Z,0.08
2023-03-26T23:37:50.943Z,0.37
2023-03-26T23:40:19.714Z,0.30
2023-03-26T23:42:48.220Z,0.32
2023-03-26T23:45:16.474Z,0.50
2023-03-26T23:47:44.914Z,0.43
2023-03-26T23:50:14.589Z,0.20
2023-03-26T23:52:45.481Z,0.40
2023-03-26T23:55:13.858Z,0.20
2023-03-26T23:57:43.316Z,0.28
